createdAt,value
2023-04-05T00:01:53.379Z,81.54
2023-04-05T00:04:23.728Z,81.84
2023-04-05T00:06:52.515Z,81.64
2023-04-05T00:09:20.677Z,81.66
2023-04-05T00:11:47.956Z,82.12
2023-04-05T00:14:14.645Z,82.54
2023-04-05T00:16:41.409Z,82.36
2023-04-05T00:19:07.980Z,82.65
2023-04-05T00:21:34.516Z,83.05
2023-04-05T00:24:01.085Z,83.62
2023-04-05T00:26:28.018Z,83.85
2023-04-05T00:28:57.578Z,83.83
2023-04-05T00:31:24.108Z,84.55
2023-04-05T00:33:50.552Z,84.66
2023-04-05T00:36:19.526Z,84.64
2023-04-05T00:38:47.246Z,84.66
2023-04-05T00:41:14.339Z,84.84
2023-04-05T00:43:41.732Z,85.01
2023-04-05T00:46:09.274Z,85.47
2023-04-05T00:48:36.440Z,85.64
2023-04-05T00:51:03.186Z,85.84
2023-04-05T00:53:32.013Z,85.85
2023-04-05T00:55:58.576Z,85.99
2023-04-05T00:58:25.039Z,86.04
2023-04-05T01:01:07.539Z,86.47
2023-04-05T01:03:35.523Z,86.81
2023-04-05T01:06:28.497Z,87.20
2023-04-05T01:09:24.867Z,87.31
2023-04-05T01:11:55.664Z,87.47
2023-04-05T01:14:22.226Z,88.15
2023-04-05T01:16:57.911Z,88.23
2023-04-05T01:19:29.998Z,88.68
2023-04-05T01:22:40.298Z,89.01
2023-04-05T01:25:38.576Z,89.05
2023-04-05T01:28:41.166Z,89.27
2023-04-05T01:31:30.732Z,89.25
2023-04-05T01:34:34.925Z,89.25
2023-04-05T01:37:03.114Z,89.78
2023-04-05T01:39:31.070Z,89.88
2023-04-05T01:41:59.903Z,90.25
2023-04-05T01:44:26.678Z,90.25
2023-04-05T01:46:55.752Z,91.03
2023-04-05T01:49:24.237Z,91.00
2023-04-05T01:51:50.799Z,91.57
2023-04-05T01:54:17.409Z,91.54
2023-04-05T01:56:43.876Z,91.82
2023-04-05T01:59:10.296Z,91.92
2023-04-05T02:01:36.817Z,91.73
2023-04-05T02:04:03.246Z,92.17
2023-04-05T02:06:32.119Z,92.12
2023-04-05T02:09:01.371Z,92.73
2023-04-05T02:11:27.761Z,92.71
2023-04-05T02:13:58.267Z,93.03
2023-04-05T02:16:27.066Z,93.22
2023-04-05T02:18:57.914Z,93.17
2023-04-05T02:21:26.034Z,93.46
2023-04-05T02:23:53.645Z,93.48
2023-04-05T02:26:21.131Z,93.69
2023-04-05T02:28:47.622Z,93.98
2023-04-05T02:31:14.598Z,94.06
2023-04-05T02:33:42.478Z,94.32
2023-04-05T02:36:11.005Z,94.57
2023-04-05T02:38:37.963Z,94.75
2023-04-05T02:41:08.661Z,94.81
2023-04-05T02:43:38.138Z,94.70
2023-04-05T02:46:04.733Z,95.15
2023-04-05T02:48:35.309Z,95.11
2023-04-05T02:51:03.098Z,95.13
2023-04-05T02:53:29.571Z,95.28
2023-04-05T02:56:00.870Z,95.67
2023-04-05T02:58:29.110Z,95.80
2023-04-05T03:00:56.312Z,95.53
2023-04-05T03:03:30.632Z,96.09
2023-04-05T03:06:09.783Z,95.89
2023-04-05T03:08:44.421Z,96.18
2023-04-05T03:11:13.229Z,96.49
2023-04-05T03:13:43.380Z,96.85
2023-04-05T03:16:17.475Z,96.80
2023-04-05T03:18:44.165Z,96.38
2023-04-05T03:21:11.358Z,96.63
2023-04-05T03:23:46.494Z,96.77
2023-04-05T03:26:15.742Z,97.30
2023-04-05T03:28:47.500Z,96.94
2023-04-05T03:31:14.289Z,96.96
2023-04-05T03:33:41.009Z,97.18
2023-04-05T03:36:08.356Z,97.14
2023-04-05T03:38:38.343Z,97.28
2023-04-05T03:41:13.207Z,97.30
2023-04-05T03:43:39.640Z,97.63
2023-04-05T03:46:06.324Z,97.63
2023-04-05T03:48:33.159Z,97.83
2023-04-05T03:50:59.644Z,97.98
2023-04-05T03:53:26.287Z,97.81
2023-04-05T03:55:55.736Z,98.04
2023-04-05T03:58:38.009Z,98.19
2023-04-05T04:01:04.773Z,98.09
2023-04-05T04:03:31.601Z,98.22
2023-04-05T04:05:58.360Z,98.62
2023-04-05T04:08:26.313Z,98.82
2023-04-05T04:10:52.702Z,98.66
2023-04-05T04:13:24.808Z,99.16
2023-04-05T04:16:00.271Z,98.93
2023-04-05T04:18:43.575Z,99.09
2023-04-05T04:21:25.382Z,98.70
2023-04-05T04:24:16.199Z,98.99
2023-04-05T04:27:01.722Z,99.02
2023-04-05T04:29:46.464Z,98.77
2023-04-05T04:32:51.511Z,98.80
2023-04-05T04:35:39.208Z,99.11
2023-04-05T04:38:26.573Z,99.79
2023-04-05T04:41:11.675Z,99.22
2023-04-05T04:43:44.583Z,99.40
2023-04-05T04:46:34.649Z,99.62
2023-04-05T04:49:07.094Z,99.52
2023-04-05T04:51:34.134Z,99.70
2023-04-05T04:54:00.657Z,99.96
2023-04-05T04:56:27.433Z,99.97
2023-04-05T04:58:56.509Z,100.00
2023-04-05T05:01:24.904Z,100.00
2023-04-05T05:03:52.207Z,100.00
2023-04-05T05:06:27.005Z,100.00
2023-04-05T05:08:54.008Z,100.00
2023-04-05T05:11:20.790Z,100.00
2023-04-05T05:13:50.557Z,100.00
2023-04-05T05:16:23.429Z,100.00
2023-04-05T05:18:53.228Z,100.00
2023-04-05T05:21:21.377Z,100.00
2023-04-05T05:23:57.785Z,100.00
2023-04-05T05:26:24.256Z,100.00
2023-04-05T05:28:50.942Z,100.00
2023-04-05T05:31:18.237Z,100.00
2023-04-05T05:33:49.329Z,100.00
2023-04-05T05:36:15.983Z,100.00
2023-04-05T05:38:43.460Z,100.00
2023-04-05T05:41:10.215Z,100.00
2023-04-05T05:43:36.581Z,100.00
2023-04-05T05:46:03.006Z,100.00
2023-04-05T05:48:29.448Z,100.00
2023-04-05T05:50:57.130Z,100.00
2023-04-05T05:53:23.855Z,100.00
2023-04-05T05:55:50.280Z,100.00
2023-04-05T05:58:16.656Z,100.00
2023-04-05T06:00:44.063Z,100.00
2023-04-05T06:03:10.979Z,100.00
2023-04-05T06:05:37.449Z,100.00
2023-04-05T06:08:04.000Z,100.00
2023-04-05T06:10:31.168Z,100.00
2023-04-05T06:12:57.540Z,100.00
2023-04-05T06:15:23.926Z,100.00
2023-04-05T06:17:50.378Z,100.00
2023-04-05T06:20:17.342Z,100.00
2023-04-05T06:22:44.416Z,100.00
2023-04-05T06:25:12.824Z,100.00
2023-04-05T06:27:39.369Z,100.00
2023-04-05T06:30:06.626Z,100.00
2023-04-05T06:32:33.038Z,100.00
2023-04-05T06:35:00.722Z,100.00
2023-04-05T06:37:27.120Z,100.00
2023-04-05T06:39:53.769Z,100.00
2023-04-05T06:42:20.257Z,100.00
2023-04-05T06:44:53.393Z,99.53
2023-04-05T06:47:19.776Z,98.81
2023-04-05T06:49:46.129Z,96.81
2023-04-05T06:52:12.506Z,95.71
2023-04-05T06:54:39.500Z,95.96
2023-04-05T06:57:05.994Z,95.40
2023-04-05T06:59:32.555Z,94.92
2023-04-05T07:01:59.034Z,93.69
2023-04-05T07:04:26.600Z,90.72
2023-04-05T07:06:53.803Z,86.46
2023-04-05T07:09:22.341Z,84.40
2023-04-05T07:11:48.720Z,80.25
2023-04-05T07:14:15.099Z,78.79
2023-04-05T07:16:41.491Z,75.33
2023-04-05T07:19:08.080Z,75.19
2023-04-05T07:21:34.670Z,75.20
2023-04-05T07:24:03.131Z,74.80
2023-04-05T07:26:29.498Z,76.00
2023-04-05T07:28:55.965Z,74.76
2023-04-05T07:31:22.358Z,73.96
2023-04-05T07:33:48.754Z,72.57
2023-04-05T07:36:15.237Z,73.05
2023-04-05T07:38:42.233Z,70.41
2023-04-05T07:41:08.932Z,70.28
2023-04-05T07:43:35.318Z,68.82
2023-04-05T07:46:03.724Z,67.27
2023-04-05T07:48:30.926Z,65.63
2023-04-05T07:51:02.435Z,65.03
2023-04-05T07:53:28.993Z,65.46
2023-04-05T07:55:57.576Z,62.32
2023-04-05T07:58:24.014Z,61.88
2023-04-05T08:00:53.173Z,61.45
2023-04-05T08:03:19.716Z,60.96
2023-04-05T08:05:46.193Z,61.64
2023-04-05T08:08:12.728Z,60.11
2023-04-05T08:10:40.416Z,59.71
2023-04-05T08:13:08.146Z,58.01
2023-04-05T08:15:34.777Z,57.32
2023-04-05T08:18:01.311Z,56.54
2023-04-05T08:20:27.801Z,57.30
2023-04-05T08:22:54.199Z,57.52
2023-04-05T08:25:21.072Z,56.52
2023-04-05T08:27:47.668Z,57.45
2023-04-05T08:30:14.245Z,57.67
2023-04-05T08:32:40.971Z,57.25
2023-04-05T08:35:07.792Z,55.99
2023-04-05T08:37:37.296Z,56.58
2023-04-05T08:40:04.775Z,54.83
2023-04-05T08:42:46.218Z,55.53
2023-04-05T08:45:16.807Z,61.75
2023-04-05T08:47:43.617Z,70.06
2023-04-05T08:50:10.549Z,67.20
2023-04-05T08:52:39.453Z,75.56
2023-04-05T08:55:06.514Z,74.79
2023-04-05T08:57:37.477Z,70.51
2023-04-05T09:00:04.661Z,63.22
2023-04-05T09:02:32.610Z,68.29
2023-04-05T09:04:59.856Z,69.22
2023-04-05T09:07:29.654Z,64.36
2023-04-05T09:09:59.273Z,60.38
2023-04-05T09:12:26.505Z,57.29
2023-04-05T09:14:54.046Z,64.13
2023-04-05T09:17:21.505Z,59.86
2023-04-05T09:19:50.384Z,56.33
2023-04-05T09:22:18.468Z,55.67
2023-04-05T09:24:46.868Z,57.21
2023-04-05T09:27:18.026Z,54.49
2023-04-05T09:29:49.799Z,50.80
2023-04-05T09:32:19.142Z,50.16
2023-04-05T09:34:45.827Z,51.85
2023-04-05T09:37:21.999Z,48.20
2023-04-05T09:39:52.245Z,46.97
2023-04-05T09:42:22.635Z,49.77
2023-04-05T09:45:02.994Z,49.14
2023-04-05T09:47:36.703Z,47.00
2023-04-05T09:50:15.520Z,45.22
2023-04-05T09:52:43.253Z,44.56
2023-04-05T09:55:10.613Z,44.39
2023-04-05T09:57:38.615Z,43.11
2023-04-05T10:00:06.603Z,43.94
2023-04-05T10:02:41.152Z,42.63
2023-04-05T10:05:15.678Z,43.92
2023-04-05T10:07:43.307Z,43.26
2023-04-05T10:10:12.237Z,43.41
2023-04-05T10:12:41.338Z,42.35
2023-04-05T10:15:12.023Z,41.32
2023-04-05T10:18:08.402Z,40.56
2023-04-05T10:20:39.930Z,40.83
2023-04-05T10:23:13.513Z,41.00
2023-04-05T10:25:53.955Z,40.15
2023-04-05T10:28:57.010Z,39.76
2023-04-05T10:31:38.909Z,39.55
2023-04-05T10:34:15.934Z,38.02
2023-04-05T10:36:49.582Z,38.42
2023-04-05T10:39:41.373Z,37.83
2023-04-05T10:42:20.110Z,37.94
2023-04-05T10:44:53.112Z,37.27
2023-04-05T10:47:23.011Z,37.22
2023-04-05T10:49:51.822Z,36.50
2023-04-05T10:52:18.695Z,36.33
2023-04-05T10:54:45.445Z,36.86
2023-04-05T10:57:12.876Z,37.03
2023-04-05T10:59:44.970Z,36.81
2023-04-05T11:02:11.909Z,36.94
2023-04-05T11:04:41.859Z,36.70
2023-04-05T11:07:18.926Z,37.01
2023-04-05T11:10:05.615Z,37.05
2023-04-05T11:12:52.268Z,35.41
2023-04-05T11:15:32.704Z,35.91
2023-04-05T11:18:09.568Z,34.65
2023-04-05T11:20:52.275Z,35.49
2023-04-05T11:23:21.125Z,36.08
2023-04-05T11:25:59.725Z,37.24
2023-04-05T11:28:30.328Z,33.35
2023-04-05T11:30:58.337Z,33.15
2023-04-05T11:33:38.892Z,33.30
2023-04-05T11:36:06.137Z,32.17
2023-04-05T11:38:32.868Z,31.90
2023-04-05T11:41:06.547Z,31.48
2023-04-05T11:43:35.453Z,31.45
2023-04-05T11:46:05.215Z,31.65
2023-04-05T11:48:31.734Z,30.54
2023-04-05T11:50:58.385Z,30.05
2023-04-05T11:53:24.820Z,30.50
2023-04-05T11:55:52.242Z,29.26
2023-04-05T11:58:23.265Z,28.93
2023-04-05T12:01:00.754Z,28.59
2023-04-05T12:03:30.908Z,28.15
2023-04-05T12:05:59.108Z,27.65
2023-04-05T12:08:39.766Z,27.50
2023-04-05T12:11:13.098Z,26.98
2023-04-05T12:13:39.639Z,26.97
2023-04-05T12:16:08.105Z,26.39
2023-04-05T12:18:36.428Z,25.55
2023-04-05T12:21:10.248Z,25.08
2023-04-05T12:23:37.964Z,24.83
2023-04-05T12:26:07.342Z,25.10
2023-04-05T12:28:53.519Z,25.48
2023-04-05T12:31:44.040Z,25.18
2023-04-05T12:34:12.770Z,24.93
2023-04-05T12:36:43.666Z,24.87
2023-04-05T12:39:10.486Z,24.72
2023-04-05T12:41:37.324Z,24.33
2023-04-05T12:44:16.640Z,23.70
2023-04-05T12:46:44.808Z,23.60
2023-04-05T12:49:12.632Z,23.19
2023-04-05T12:51:46.111Z,23.45
2023-04-05T12:54:21.677Z,23.95
2023-04-05T12:56:52.975Z,23.94
2023-04-05T12:59:19.779Z,23.25
2023-04-05T13:01:46.503Z,23.43
2023-04-05T13:04:16.641Z,23.18
2023-04-05T13:06:47.304Z,23.49
2023-04-05T13:09:14.257Z,23.45
2023-04-05T13:11:40.796Z,23.64
2023-04-05T13:14:07.464Z,23.22
2023-04-05T13:16:33.896Z,23.18
2023-04-05T13:19:00.636Z,22.96
2023-04-05T13:21:27.449Z,22.93
2023-04-05T13:23:53.838Z,23.04
2023-04-05T13:26:20.909Z,23.10
2023-04-05T13:28:47.287Z,22.68
2023-04-05T13:31:15.685Z,22.96
2023-04-05T13:33:42.845Z,22.68
2023-04-05T13:36:10.856Z,22.10
2023-04-05T13:38:37.635Z,22.15
2023-04-05T13:41:04.315Z,22.06
2023-04-05T13:43:31.041Z,21.79
2023-04-05T13:45:57.485Z,21.92
2023-04-05T13:48:23.899Z,22.35
2023-04-05T13:50:50.523Z,22.27
2023-04-05T13:53:16.875Z,21.96
2023-04-05T13:55:43.409Z,21.70
2023-04-05T13:58:09.966Z,21.62
2023-04-05T14:00:38.083Z,21.44
2023-04-05T14:03:04.625Z,21.25
2023-04-05T14:05:31.063Z,21.14
2023-04-05T14:07:57.541Z,21.37
2023-04-05T14:10:24.204Z,20.85
2023-04-05T14:12:50.790Z,21.03
2023-04-05T14:15:17.841Z,20.99
2023-04-05T14:17:44.259Z,20.81
2023-04-05T14:20:11.657Z,20.30
2023-04-05T14:22:38.099Z,20.77
2023-04-05T14:25:04.902Z,21.04
2023-04-05T14:27:31.353Z,20.95
2023-04-05T14:29:57.851Z,20.96
2023-04-05T14:32:25.113Z,20.95
2023-04-05T14:34:51.536Z,20.84
2023-04-05T14:37:18.139Z,20.94
2023-04-05T14:39:44.585Z,21.27
2023-04-05T14:42:10.945Z,21.35
2023-04-05T14:44:37.448Z,21.29
2023-04-05T14:47:03.841Z,21.15
2023-04-05T14:49:30.258Z,20.87
2023-04-05T14:51:58.166Z,21.01
2023-04-05T14:54:24.591Z,20.38
2023-04-05T14:56:50.958Z,20.49
2023-04-05T14:59:17.372Z,20.69
2023-04-05T15:01:45.424Z,20.81
2023-04-05T15:04:12.335Z,21.18
2023-04-05T15:06:38.763Z,21.62
2023-04-05T15:09:05.148Z,21.16
2023-04-05T15:11:34.651Z,21.57
2023-04-05T15:14:01.231Z,20.91
2023-04-05T15:16:29.259Z,21.17
2023-04-05T15:18:56.040Z,21.41
2023-04-05T15:21:23.028Z,21.76
2023-04-05T15:23:49.427Z,21.69
2023-04-05T15:26:15.786Z,21.95
2023-04-05T15:28:42.165Z,21.75
2023-04-05T15:31:08.794Z,22.41
2023-04-05T15:33:35.168Z,22.44
2023-04-05T15:36:01.708Z,22.50
2023-04-05T15:38:28.158Z,22.81
2023-04-05T15:40:54.641Z,22.74
2023-04-05T15:43:22.167Z,23.15
2023-04-05T15:45:48.784Z,23.16
2023-04-05T15:48:15.301Z,23.58
2023-04-05T15:50:42.144Z,23.34
2023-04-05T15:53:08.914Z,23.02
2023-04-05T15:55:35.837Z,23.48
2023-04-05T15:58:02.213Z,23.55
2023-04-05T16:00:29.033Z,24.22
2023-04-05T16:03:00.469Z,23.41
2023-04-05T16:05:27.457Z,23.32
2023-04-05T16:07:54.350Z,23.46
2023-04-05T16:10:20.824Z,23.71
2023-04-05T16:12:47.293Z,24.87
2023-04-05T16:15:14.028Z,24.80
2023-04-05T16:17:40.574Z,24.91
2023-04-05T16:20:07.645Z,25.67
2023-04-05T16:22:34.146Z,25.06
2023-04-05T16:25:00.695Z,25.04
2023-04-05T16:27:27.240Z,25.40
2023-04-05T16:29:53.849Z,25.31
2023-04-05T16:32:20.596Z,25.09
2023-04-05T16:34:47.122Z,25.20
2023-04-05T16:37:13.522Z,25.31
2023-04-05T16:39:39.898Z,24.81
2023-04-05T16:42:07.785Z,25.32
2023-04-05T16:44:34.184Z,25.83
2023-04-05T16:47:00.596Z,26.00
2023-04-05T16:49:27.020Z,25.12
2023-04-05T16:51:53.485Z,25.57
2023-04-05T16:54:20.206Z,26.19
2023-04-05T16:56:46.623Z,26.98
2023-04-05T16:59:13.039Z,26.62
2023-04-05T17:01:39.441Z,25.98
2023-04-05T17:04:05.904Z,26.06
2023-04-05T17:06:32.443Z,25.81
2023-04-05T17:08:58.921Z,26.64
2023-04-05T17:11:28.136Z,27.33
2023-04-05T17:13:54.596Z,27.57
2023-04-05T17:16:22.335Z,27.74
2023-04-05T17:18:48.845Z,27.42
2023-04-05T17:21:15.324Z,27.85
2023-04-05T17:23:41.690Z,27.83
2023-04-05T17:26:08.484Z,27.96
2023-04-05T17:28:34.942Z,27.48
2023-04-05T17:31:02.637Z,27.98
2023-04-05T17:33:29.412Z,28.78
2023-04-05T17:35:55.960Z,28.59
2023-04-05T17:38:22.699Z,28.85
2023-04-05T17:40:49.153Z,29.21
2023-04-05T17:43:15.948Z,30.02
2023-04-05T17:45:42.411Z,30.13
2023-04-05T17:48:09.151Z,30.62
2023-04-05T17:50:37.070Z,30.66
2023-04-05T17:53:03.683Z,31.31
2023-04-05T17:55:33.451Z,31.54
2023-04-05T17:58:00.243Z,31.86
2023-04-05T18:00:26.730Z,31.67
2023-04-05T18:02:53.294Z,32.09
2023-04-05T18:05:19.889Z,32.22
2023-04-05T18:07:46.467Z,32.67
2023-04-05T18:10:13.191Z,32.97
2023-04-05T18:12:39.699Z,33.85
2023-04-05T18:15:06.775Z,34.34
2023-04-05T18:17:33.621Z,34.03
2023-04-05T18:20:00.035Z,34.80
2023-04-05T18:22:27.569Z,35.95
2023-04-05T18:24:53.998Z,37.64
2023-04-05T18:27:21.057Z,37.37
2023-04-05T18:29:48.394Z,37.34
2023-04-05T18:32:14.897Z,38.11
2023-04-05T18:34:41.610Z,38.54
2023-04-05T18:37:07.984Z,40.84
2023-04-05T18:39:34.400Z,40.43
2023-04-05T18:42:00.945Z,40.59
2023-04-05T18:44:27.309Z,41.15
2023-04-05T18:46:53.746Z,41.53
2023-04-05T18:49:21.111Z,41.62
2023-04-05T18:51:48.675Z,43.08
2023-04-05T18:54:18.158Z,43.07
2023-04-05T18:56:45.539Z,44.72
2023-04-05T18:59:12.359Z,46.11
2023-04-05T19:01:38.908Z,47.64
2023-04-05T19:04:05.905Z,49.03
2023-04-05T19:06:32.632Z,49.23
2023-04-05T19:08:59.660Z,48.86
2023-04-05T19:11:26.229Z,49.54
2023-04-05T19:13:53.746Z,49.90
2023-04-05T19:16:20.163Z,50.89
2023-04-05T19:18:46.585Z,51.26
2023-04-05T19:21:13.674Z,52.33
2023-04-05T19:23:40.040Z,52.41
2023-04-05T19:26:06.505Z,52.98
2023-04-05T19:28:32.914Z,52.70
2023-04-05T19:30:59.375Z,53.98
2023-04-05T19:33:26.085Z,54.25
2023-04-05T19:35:52.569Z,54.10
2023-04-05T19:38:22.078Z,54.96
2023-04-05T19:40:48.950Z,54.91
2023-04-05T19:43:15.533Z,55.46
2023-04-05T19:45:42.202Z,57.12
2023-04-05T19:48:39.170Z,57.51
2023-04-05T19:51:07.666Z,58.07
2023-04-05T19:53:47.834Z,58.36
2023-04-05T19:56:22.769Z,58.77
2023-04-05T19:58:53.549Z,59.23
2023-04-05T20:01:30.984Z,60.37
2023-04-05T20:03:58.079Z,61.02
2023-04-05T20:06:25.949Z,60.52
2023-04-05T20:08:57.265Z,59.90
2023-04-05T20:11:24.614Z,60.48
2023-04-05T20:13:56.782Z,60.95
2023-04-05T20:16:26.944Z,61.99
2023-04-05T20:18:54.177Z,61.79
2023-04-05T20:21:20.782Z,63.16
2023-04-05T20:23:47.328Z,64.07
2023-04-05T20:26:15.917Z,64.24
2023-04-05T20:28:55.966Z,64.19
2023-04-05T20:31:26.297Z,64.81
2023-04-05T20:34:11.219Z,65.37
2023-04-05T20:36:51.812Z,65.59
2023-04-05T20:39:18.610Z,66.40
2023-04-05T20:41:46.199Z,66.84
2023-04-05T20:44:12.653Z,66.46
2023-04-05T20:46:39.504Z,67.34
2023-04-05T20:49:06.560Z,67.84
2023-04-05T20:51:33.467Z,68.25
2023-04-05T20:54:00.116Z,69.21
2023-04-05T20:56:26.669Z,68.72
2023-04-05T20:58:54.596Z,69.02
2023-04-05T21:01:21.598Z,69.45
2023-04-05T21:03:48.030Z,70.37
2023-04-05T21:06:14.468Z,70.74
2023-04-05T21:08:41.344Z,71.82
2023-04-05T21:11:08.199Z,71.69
2023-04-05T21:13:35.337Z,72.32
2023-04-05T21:16:01.783Z,72.47
2023-04-05T21:18:28.468Z,73.15
2023-04-05T21:20:55.385Z,73.53
2023-04-05T21:23:25.976Z,73.73
2023-04-05T21:25:52.817Z,74.24
2023-04-05T21:28:19.241Z,74.49
2023-04-05T21:30:45.901Z,74.40
2023-04-05T21:33:12.971Z,74.76
2023-04-05T21:35:39.841Z,74.88
2023-04-05T21:38:06.527Z,75.01
2023-04-05T21:40:33.053Z,75.57
2023-04-05T21:42:59.765Z,75.78
2023-04-05T21:45:26.403Z,76.14
2023-04-05T21:47:53.960Z,76.24
2023-04-05T21:50:20.986Z,76.58
2023-04-05T21:52:47.723Z,77.11
2023-04-05T21:55:14.544Z,77.50
2023-04-05T21:57:41.037Z,78.09
2023-04-05T22:00:11.718Z,78.19
2023-04-05T22:02:41.505Z,78.76
2023-04-05T22:05:08.981Z,79.05
2023-04-05T22:07:35.961Z,79.52
2023-04-05T22:10:02.898Z,79.66
2023-04-05T22:12:29.573Z,79.76
2023-04-05T22:14:56.340Z,80.06
2023-04-05T22:17:22.738Z,80.74
2023-04-05T22:19:49.193Z,80.41
2023-04-05T22:22:16.410Z,80.43
2023-04-05T22:24:43.331Z,80.89
2023-04-05T22:27:10.935Z,81.00
2023-04-05T22:29:37.876Z,81.16
2023-04-05T22:32:04.495Z,81.66
2023-04-05T22:34:31.348Z,81.44
2023-04-05T22:36:57.785Z,81.45
2023-04-05T22:39:24.248Z,81.52
2023-04-05T22:41:50.764Z,81.87
2023-04-05T22:44:17.124Z,82.20
2023-04-05T22:46:43.530Z,82.38
2023-04-05T22:49:10.108Z,83.19
2023-04-05T22:51:37.254Z,83.56
2023-04-05T22:54:03.787Z,83.84
2023-04-05T22:56:31.432Z,84.13
2023-04-05T22:58:57.917Z,84.34
2023-04-05T23:01:24.394Z,84.47
2023-04-05T23:03:50.863Z,84.78
2023-04-05T23:06:17.386Z,84.75
2023-04-05T23:08:43.840Z,85.33
2023-04-05T23:11:10.406Z,85.54
2023-04-05T23:13:36.882Z,85.59
2023-04-05T23:16:03.857Z,86.01
2023-04-05T23:18:30.359Z,86.28
2023-04-05T23:20:56.805Z,86.34
2023-04-05T23:23:23.602Z,86.50
2023-04-05T23:25:50.283Z,86.74
2023-04-05T23:28:16.643Z,86.94
2023-04-05T23:30:43.032Z,87.32
2023-04-05T23:33:13.212Z,87.45
2023-04-05T23:35:40.485Z,87.81
2023-04-05T23:38:07.327Z,87.81
2023-04-05T23:40:33.890Z,88.45
2023-04-05T23:43:00.526Z,88.29
2023-04-05T23:45:27.028Z,88.22
2023-04-05T23:47:55.348Z,88.34
2023-04-05T23:50:22.158Z,88.46
2023-04-05T23:52:48.661Z,88.68
2023-04-05T23:55:15.463Z,88.91
2023-04-05T23:57:41.816Z,88.81
